RAIN

Not for real navigation. The accuracy of this data is not assured See disclaimer for more information



ICAO NAME COUNTRY WIND Kt GUST Kt VIS m TEMP/DEW C BARO METAR
KWVL Waterville, Waterville Robert ME United States 4 0 400 11/11 30.11 KWVL 220956Z AUTO 01004KT 0.25SM -RA FG OVC003 11/11 A3011 RMK AO2 RAB53 SLP225 P0000 T01060106
KLEW Auburn-Lewiston ME United States 0 0 400 10/10 30.14 KLEW 220956Z AUTO 00000KT 0.25SM -RA FG OVC002 10/10 A3014 RMK AO2 RAB01 SLP221 P0000 T01000100
SLVR Viru-Viru Bolivia 10 0 600 22/21 29.85 SLVR 221000Z 19010KT 0600 +TSRA BKN008 BKN015 SCT027CB OVC070 22/21 Q1011
SCCH Chillan Chile 2 0 600 8/8 30.03 SCCH 221000Z AUTO VRB02KT 0600 R/////// -RA FG ///////// 08/08 Q1017
LFVP Saint-Pierre Saint Pierre and Miquelon 20 0 600 5/4 30.18 LFVP 221000Z 22020KT 0600 R26/0900U -RA FG VV/// 05/04 Q1022 NOSIG

Show more